Time;durP1;ratioP1;P1;durP2;ratioP2;P2;SDS_P1;SDS_P2;PMS_P1;PMS_P2;Temp;Humidity;BMP_temperature;BMP_pressure;BME280_temperature;BME280_humidity;BME280_pressure;Samples;Min_cycle;Max_cycle;Signal;HPM_P1;HPM_P2
2022/12/14 00:00:44;;;;;;;10.18;6.47;;;6.30;66.10;;;;;;6339541;22;19994;-82
2022/12/14 00:03:11;;;;;;;10.20;7.15;;;6.30;66.10;;;;;;6339443;22;20012;-80
2022/12/14 00:05:36;;;;;;;12.30;6.85;;;6.30;66.40;;;;;;6339803;22;20332;-81
2022/12/14 00:08:02;;;;;;;12.27;7.13;;;6.40;66.80;;;;;;6338600;22;20005;-81
2022/12/14 00:10:31;;;;;;;10.82;7.68;;;6.40;66.80;;;;;;6339421;22;20374;-81
2022/12/14 00:12:56;;;;;;;11.18;7.03;;;6.50;66.60;;;;;;6339412;22;20014;-81
2022/12/14 00:15:22;;;;;;;16.70;9.02;;;6.50;66.40;;;;;;6339420;22;20003;-80
2022/12/14 00:17:48;;;;;;;12.00;8.00;;;6.40;65.80;;;;;;6338903;22;19995;-81
2022/12/14 00:20:14;;;;;;;16.83;8.00;;;6.30;65.70;;;;;;6338987;22;19999;-81
2022/12/14 00:22:39;;;;;;;10.43;7.30;;;6.20;65.20;;;;;;6339105;22;20045;-81
2022/12/14 00:25:06;;;;;;;12.70;8.27;;;6.30;66.20;;;;;;6340116;22;20003;-81
2022/12/14 00:27:31;;;;;;;9.20;6.70;;;6.30;66.30;;;;;;6339648;22;20007;-81
2022/12/14 00:29:57;;;;;;;11.07;7.28;;;6.30;66.10;;;;;;6338956;22;20324;-81
2022/12/14 00:32:23;;;;;;;11.30;7.28;;;6.30;66.60;;;;;;6338969;22;19999;-81
2022/12/14 00:34:49;;;;;;;13.23;7.20;;;6.30;66.70;;;;;;6339064;22;20078;-81
2022/12/14 00:37:14;;;;;;;10.75;7.45;;;6.30;66.20;;;;;;6339849;22;20048;-81
2022/12/14 00:39:40;;;;;;;11.82;7.30;;;6.30;66.30;;;;;;6339098;22;20309;-81
2022/12/14 00:42:06;;;;;;;15.25;8.10;;;6.30;66.90;;;;;;6311777;22;20030;-82
2022/12/14 00:44:32;;;;;;;12.57;7.45;;;6.30;67.10;;;;;;6311250;22;20007;-84
2022/12/14 00:46:58;;;;;;;11.40;7.72;;;6.40;67.30;;;;;;6339488;22;20030;-84
2022/12/14 00:49:24;;;;;;;11.70;7.55;;;6.40;67.50;;;;;;6338927;22;19999;-85
2022/12/14 00:51:49;;;;;;;11.13;7.63;;;6.40;67.50;;;;;;6339337;22;20003;-84
2022/12/14 00:54:15;;;;;;;16.35;9.05;;;6.40;67.40;;;;;;6338900;22;20002;-84
2022/12/14 00:56:41;;;;;;;13.05;8.65;;;6.40;67.50;;;;;;6339189;22;19995;-84
2022/12/14 00:59:07;;;;;;;13.57;8.88;;;6.40;67.60;;;;;;6338437;22;19995;-83
2022/12/14 01:01:33;;;;;;;14.23;8.68;;;6.40;67.70;;;;;;6338851;22;20016;-82
2022/12/14 01:04:16;;;;;;;12.75;8.25;;;6.40;67.70;;;;;;6339383;22;20031;-82
2022/12/14 01:06:43;;;;;;;10.98;7.70;;;6.40;67.90;;;;;;6339710;22;19999;-82
2022/12/14 01:09:09;;;;;;;10.70;7.15;;;6.40;68.10;;;;;;6338863;22;20003;-85
2022/12/14 01:11:35;;;;;;;15.43;8.45;;;6.40;67.60;;;;;;6338760;22;20034;-83
2022/12/14 01:14:01;;;;;;;13.80;8.18;;;6.40;68.00;;;;;;6339058;22;20061;-83
2022/12/14 01:16:26;;;;;;;14.30;7.80;;;6.40;67.60;;;;;;6339840;22;20010;-83
2022/12/14 01:18:52;;;;;;;14.23;8.85;;;6.20;67.80;;;;;;6338390;22;20062;-84
2022/12/14 01:21:20;;;;;;;14.93;9.68;;;6.40;68.60;;;;;;6339405;22;19999;-83
2022/12/14 01:23:49;;;;;;;12.68;8.52;;;6.40;68.70;;;;;;6338475;22;20006;-84
2022/12/14 01:26:16;;;;;;;12.38;8.35;;;;;;;;;;6339020;22;20049;-84
2022/12/14 01:28:42;;;;;;;12.15;8.45;;;6.50;68.60;;;;;;6338354;22;20413;-82
2022/12/14 01:31:10;;;;;;;14.77;8.70;;;6.50;69.00;;;;;;6338485;22;20010;-83
2022/12/14 01:33:36;;;;;;;12.20;7.88;;;6.50;69.00;;;;;;6338502;22;20006;-83
2022/12/14 01:36:14;;;;;;;12.75;7.88;;;6.50;69.10;;;;;;6339476;22;20040;-84
2022/12/14 01:38:39;;;;;;;12.52;8.85;;;6.50;69.20;;;;;;6338229;22;20104;-83
2022/12/14 01:41:06;;;;;;;11.30;8.00;;;6.40;69.20;;;;;;6339265;22;20667;-82
2022/12/14 01:43:49;;;;;;;12.85;7.90;;;6.30;69.00;;;;;;6338576;22;20211;-82
2022/12/14 01:46:37;;;;;;;12.98;8.32;;;6.30;69.40;;;;;;6339372;22;20026;-83
2022/12/14 01:49:32;;;;;;;12.50;8.15;;;6.30;69.30;;;;;;6338111;22;20006;-83
2022/12/14 01:52:22;;;;;;;10.52;7.25;;;6.10;68.80;;;;;;6309806;22;20041;-84
2022/12/14 01:55:02;;;;;;;11.40;7.43;;;6.30;69.30;;;;;;6339324;22;20017;-84
2022/12/14 01:58:17;;;;;;;10.43;7.07;;;6.40;69.20;;;;;;6338137;22;19995;-83
2022/12/14 02:00:43;;;;;;;13.05;6.97;;;6.40;68.80;;;;;;6304422;22;20021;-83
2022/12/14 02:03:35;;;;;;;9.38;6.07;;;6.50;66.90;;;;;;6304609;22;20043;-84
2022/12/14 02:06:05;;;;;;;8.90;6.10;;;6.50;66.40;;;;;;6302413;22;20336;-83
2022/12/14 02:08:32;;;;;;;8.20;6.13;;;6.50;67.40;;;;;;6338447;22;20456;-84
2022/12/14 02:10:58;;;;;;;12.25;5.95;;;6.50;67.00;;;;;;6338289;22;20011;-83
2022/12/14 02:13:33;;;;;;;10.48;6.15;;;6.50;66.80;;;;;;6338547;22;19999;-84
2022/12/14 02:15:59;;;;;;;7.97;5.88;;;6.50;66.50;;;;;;6338791;22;20321;-82
2022/12/14 02:18:27;;;;;;;9.07;6.55;;;6.50;66.20;;;;;;6337706;22;19999;-83
2022/12/14 02:20:59;;;;;;;10.15;7.05;;;6.50;66.00;;;;;;6338139;22;19999;-82
2022/12/14 02:23:55;;;;;;;10.32;6.72;;;6.60;66.80;;;;;;6338720;22;20005;-82
2022/12/14 02:26:38;;;;;;;9.95;6.55;;;6.50;66.60;;;;;;6338023;22;20080;-82
2022/12/14 02:29:35;;;;;;;11.13;6.30;;;6.50;67.00;;;;;;6338775;22;20305;-83
2022/12/14 02:32:11;;;;;;;10.27;6.50;;;6.60;66.80;;;;;;6338156;22;20002;-83
2022/12/14 02:34:51;;;;;;;8.38;5.90;;;6.50;66.40;;;;;;6311120;22;20007;-83
2022/12/14 02:37:28;;;;;;;8.30;6.00;;;6.40;66.60;;;;;;6338399;22;20044;-84
2022/12/14 02:40:31;;;;;;;10.45;6.63;;;6.40;67.20;;;;;;6337709;22;20022;-82
2022/12/14 02:43:12;;;;;;;9.73;6.80;;;6.50;67.60;;;;;;6337917;22;20074;-82
2022/12/14 02:45:51;;;;;;;10.95;7.00;;;6.50;68.00;;;;;;6338823;22;19994;-81
2022/12/14 02:48:40;;;;;;;9.95;7.07;;;6.50;68.20;;;;;;6337567;22;20003;-82
2022/12/14 02:51:23;;;;;;;12.95;7.45;;;6.50;68.40;;;;;;6338289;22;20025;-81
2022/12/14 02:54:00;;;;;;;11.60;7.75;;;6.50;68.70;;;;;;6337986;22;20030;-81
2022/12/14 02:56:36;;;;;;;9.85;6.32;;;6.50;69.10;;;;;;6337547;22;20169;-81
2022/12/14 02:59:05;;;;;;;10.32;6.90;;;6.40;69.30;;;;;;6337853;22;19999;-81
2022/12/14 03:01:33;;;;;;;10.77;7.30;;;6.40;69.20;;;;;;6337924;22;20067;-82
2022/12/14 03:04:00;;;;;;;11.43;7.57;;;6.40;69.60;;;;;;6338697;22;20002;-81
2022/12/14 03:06:26;;;;;;;12.20;7.60;;;6.40;70.10;;;;;;6338216;22;20010;-81
2022/12/14 03:08:59;;;;;;;9.82;6.97;;;6.40;70.40;;;;;;6338042;22;20009;-82
2022/12/14 03:11:48;;;;;;;10.30;7.05;;;6.30;70.50;;;;;;6309727;22;20042;-81
2022/12/14 03:14:24;;;;;;;13.25;8.00;;;6.30;71.50;;;;;;6333756;22;20052;-82
2022/12/14 03:16:51;;;;;;;11.25;7.40;;;6.30;71.60;;;;;;6338288;22;20446;-82
2022/12/14 03:19:25;;;;;;;12.63;7.80;;;6.30;71.10;;;;;;6337801;22;19999;-82
2022/12/14 03:21:57;;;;;;;11.65;8.25;;;6.30;71.90;;;;;;6337462;22;20005;-82
2022/12/14 03:24:29;;;;;;;10.70;7.68;;;6.40;71.90;;;;;;6338373;22;20030;-82
2022/12/14 03:26:57;;;;;;;11.60;8.15;;;6.40;71.90;;;;;;6337911;22;19995;-82
2022/12/14 03:29:40;;;;;;;11.23;7.53;;;6.50;71.80;;;;;;6337869;22;19999;-82
2022/12/14 03:32:13;;;;;;;12.00;7.60;;;6.50;71.60;;;;;;6310339;22;20080;-83
2022/12/14 03:34:44;;;;;;;12.68;8.43;;;6.50;71.70;;;;;;6338011;22;20025;-83
2022/12/14 03:37:27;;;;;;;11.35;7.35;;;6.50;71.90;;;;;;6338019;22;19999;-81
2022/12/14 03:39:53;;;;;;;13.00;8.93;;;6.60;72.20;;;;;;6338000;22;20034;-80
2022/12/14 03:42:45;;;;;;;14.70;8.10;;;6.60;72.40;;;;;;6337614;22;20002;-80
2022/12/14 03:45:22;;;;;;;13.18;8.13;;;6.60;72.20;;;;;;6333778;22;20041;-80
2022/12/14 03:48:00;;;;;;;11.57;7.53;;;6.60;72.50;;;;;;6338349;22;20003;-80
2022/12/14 03:50:48;;;;;;;13.98;8.60;;;6.50;72.60;;;;;;6336422;22;20455;-80
2022/12/14 03:53:39;;;;;;;13.95;7.85;;;6.50;72.60;;;;;;6337526;22;20022;-81
2022/12/14 03:56:22;;;;;;;13.13;7.70;;;6.50;72.40;;;;;;6337527;22;20066;-80
2022/12/14 03:59:01;;;;;;;12.38;8.55;;;6.50;72.80;;;;;;6337720;22;19999;-80
2022/12/14 04:01:32;;;;;;;13.02;8.63;;;6.50;72.90;;;;;;6337815;22;20002;-81
2022/12/14 04:04:19;;;;;;;16.77;9.00;;;6.50;73.00;;;;;;6337910;22;20706;-81
2022/12/14 04:06:47;;;;;;;13.68;8.20;;;6.50;73.20;;;;;;6309837;22;20003;-81
2022/12/14 04:09:39;;;;;;;13.52;8.95;;;6.60;73.30;;;;;;6338636;22;19999;-80
2022/12/14 04:20:53;;;;;;;12.82;8.57;;;6.50;73.80;;;;;;6339173;22;20013;-82
2022/12/14 04:26:14;;;;;;;12.45;8.43;;;6.50;74.00;;;;;;6339078;22;20018;-82
2022/12/14 04:31:36;;;;;;;13.27;8.68;;;6.50;73.90;;;;;;6339660;22;20454;-81
2022/12/14 04:34:05;;;;;;;14.00;9.00;;;6.50;73.80;;;;;;6339928;22;20076;-81
2022/12/14 04:36:42;;;;;;;13.07;8.63;;;6.50;73.80;;;;;;6340014;22;20003;-81
2022/12/14 04:39:18;;;;;;;13.52;8.50;;;6.50;73.80;;;;;;6339081;22;19994;-81
2022/12/14 04:41:49;;;;;;;16.02;9.02;;;6.50;74.00;;;;;;6339197;22;20002;-81
2022/12/14 04:44:33;;;;;;;12.35;8.85;;;6.50;74.30;;;;;;6339072;22;20010;-83
2022/12/14 04:47:01;;;;;;;12.60;8.50;;;6.50;74.30;;;;;;6339631;22;20326;-82
2022/12/14 04:49:49;;;;;;;13.38;8.93;;;6.50;74.30;;;;;;6338742;22;19999;-83
2022/12/14 04:52:34;;;;;;;15.30;9.00;;;6.50;74.30;;;;;;6338884;22;19998;-83
2022/12/14 04:55:05;;;;;;;12.50;8.70;;;6.50;74.50;;;;;;6339492;22;20046;-83
2022/12/14 04:57:44;;;;;;;14.05;8.95;;;6.50;74.70;;;;;;6339290;22;19998;-83
2022/12/14 05:00:10;;;;;;;13.15;8.77;;;6.50;74.90;;;;;;6338350;22;20082;-83
2022/12/14 05:03:18;;;;;;;14.20;9.60;;;6.60;74.90;;;;;;6339003;22;20018;-82
2022/12/14 05:05:55;;;;;;;14.02;8.70;;;6.60;74.90;;;;;;6338750;22;20003;-82
2022/12/14 05:08:27;;;;;;;15.80;9.63;;;6.60;75.00;;;;;;6339866;22;20057;-82
2022/12/14 05:11:08;;;;;;;15.13;10.10;;;6.60;75.20;;;;;;6338828;22;20011;-82
2022/12/14 05:13:41;;;;;;;16.50;9.60;;;6.60;75.30;;;;;;6339481;22;20003;-85
2022/12/14 05:16:07;;;;;;;13.07;9.50;;;6.60;75.40;;;;;;6339254;22;19995;-82
2022/12/14 05:18:34;;;;;;;18.27;10.27;;;6.50;75.10;;;;;;6339632;22;20078;-83
2022/12/14 05:21:00;;;;;;;16.20;10.52;;;6.60;75.90;;;;;;6338860;22;19995;-83
2022/12/14 05:23:26;;;;;;;16.63;10.55;;;6.50;76.90;;;;;;6339226;22;20009;-83
2022/12/14 05:25:51;;;;;;;22.52;13.50;;;6.40;76.10;;;;;;6338489;22;20042;-82
2022/12/14 05:28:17;;;;;;;17.38;11.05;;;6.30;77.70;;;;;;6339396;22;20009;-81
2022/12/14 05:30:43;;;;;;;16.95;10.35;;;6.30;77.00;;;;;;6337992;22;20068;-82
2022/12/14 05:33:19;;;;;;;18.25;11.57;;;6.40;77.40;;;;;;6339151;22;20074;-82
2022/12/14 05:35:45;;;;;;;18.08;11.45;;;6.40;77.10;;;;;;6338845;22;20338;-81
2022/12/14 05:38:12;;;;;;;20.42;12.18;;;6.40;77.60;;;;;;6338999;22;20010;-81
2022/12/14 05:40:38;;;;;;;17.40;10.55;;;6.50;77.70;;;;;;6335847;22;19995;-81
2022/12/14 05:43:06;;;;;;;17.17;10.15;;;6.50;77.00;;;;;;6337989;22;20128;-80
2022/12/14 05:45:31;;;;;;;15.13;9.07;;;6.50;77.10;;;;;;6338212;22;20527;-80
2022/12/14 05:47:57;;;;;;;15.18;10.27;;;6.50;77.00;;;;;;6339090;22;20018;-81
2022/12/14 05:50:23;;;;;;;15.82;10.27;;;6.50;76.40;;;;;;6338889;22;19999;-75
2022/12/14 05:52:51;;;;;;;15.43;10.40;;;6.50;76.10;;;;;;6338752;22;19998;-75
2022/12/14 05:55:17;;;;;;;13.82;9.15;;;6.60;76.50;;;;;;6337163;22;19999;-75
2022/12/14 05:57:42;;;;;;;14.18;9.30;;;6.60;76.50;;;;;;6338520;22;19995;-75
2022/12/14 06:00:10;;;;;;;13.98;9.13;;;6.60;76.30;;;;;;6337941;22;20334;-86
2022/12/14 06:02:36;;;;;;;14.60;8.70;;;6.50;75.60;;;;;;6310838;22;20006;-75
2022/12/14 06:05:01;;;;;;;15.23;9.27;;;6.50;75.90;;;;;;6338237;22;20309;-75
2022/12/14 06:07:27;;;;;;;12.10;8.48;;;6.60;75.60;;;;;;6338364;22;19999;-75
2022/12/14 06:09:52;;;;;;;14.38;8.82;;;6.60;74.60;;;;;;6337844;22;20686;-79
2022/12/14 06:12:18;;;;;;;15.02;9.02;;;6.60;74.40;;;;;;6338934;22;20007;-80
2022/12/14 06:14:44;;;;;;;15.70;9.57;;;6.60;74.70;;;;;;6338209;22;20401;-80
2022/12/14 06:17:11;;;;;;;15.90;8.70;;;6.60;74.50;;;;;;6337286;22;20002;-79
2022/12/14 06:19:37;;;;;;;17.30;9.18;;;6.60;74.10;;;;;;6310047;22;20045;-78
2022/12/14 06:22:02;;;;;;;14.32;8.63;;;6.60;74.00;;;;;;6309728;22;20003;-77
2022/12/14 06:24:28;;;;;;;13.43;9.25;;;6.60;74.00;;;;;;6337799;22;20009;-77
2022/12/14 06:26:55;;;;;;;13.15;8.98;;;6.60;74.10;;;;;;6338372;22;20030;-77
2022/12/14 06:29:21;;;;;;;14.23;9.85;;;6.60;74.10;;;;;;6338769;22;19999;-79
2022/12/14 06:31:47;;;;;;;13.18;8.60;;;6.70;74.10;;;;;;6338043;22;20480;-78
2022/12/14 06:34:13;;;;;;;13.40;9.18;;;6.70;74.00;;;;;;6338517;22;20002;-78
2022/12/14 06:36:41;;;;;;;14.43;8.50;;;6.60;73.60;;;;;;6338344;22;19999;-78
2022/12/14 06:39:13;;;;;;;13.88;9.45;;;6.60;74.10;;;;;;6338341;22;19999;-78
2022/12/14 06:41:39;;;;;;;14.02;9.25;;;6.60;74.40;;;;;;6338107;22;20003;-79
2022/12/14 06:44:16;;;;;;;15.27;9.32;;;6.60;74.50;;;;;;6337906;22;19999;-79
2022/12/14 06:46:42;;;;;;;16.77;9.77;;;6.60;74.60;;;;;;6338343;22;20009;-82
2022/12/14 06:49:12;;;;;;;15.45;8.77;;;6.60;74.80;;;;;;6338578;22;20324;-79
2022/12/14 06:51:39;;;;;;;14.77;9.20;;;6.60;75.10;;;;;;6338481;22;20094;-81
2022/12/14 06:54:05;;;;;;;16.08;9.32;;;;;;;;;;6338020;22;20067;-84
2022/12/14 06:56:31;;;;;;;19.30;10.30;;;6.60;75.00;;;;;;6337808;22;20022;-83
2022/12/14 06:58:56;;;;;;;18.20;10.43;;;6.50;75.30;;;;;;6338414;22;19999;-77
2022/12/14 07:01:24;;;;;;;17.83;11.45;;;6.50;75.80;;;;;;6337395;22;20436;-77
2022/12/14 07:03:53;;;;;;;25.88;11.93;;;6.50;76.00;;;;;;6338088;22;20074;-78
2022/12/14 07:06:19;;;;;;;15.77;9.80;;;6.50;76.10;;;;;;6338054;22;20009;-79
2022/12/14 07:08:45;;;;;;;14.70;9.63;;;6.30;76.30;;;;;;6338052;22;20413;-79
2022/12/14 07:11:13;;;;;;;16.23;10.65;;;6.40;76.70;;;;;;6338136;22;20044;-80
2022/12/14 07:13:40;;;;;;;15.18;9.18;;;6.40;76.30;;;;;;6338038;22;20007;-80
2022/12/14 07:16:07;;;;;;;17.25;10.55;;;6.50;76.30;;;;;;6338267;22;19995;-80
2022/12/14 07:18:33;;;;;;;21.13;9.73;;;6.40;76.60;;;;;;6338160;22;20450;-79
2022/12/14 07:21:04;;;;;;;17.52;9.95;;;6.50;76.80;;;;;;6338824;22;20417;-80
2022/12/14 07:23:33;;;;;;;19.77;10.50;;;6.50;77.00;;;;;;6338152;22;20003;-79
2022/12/14 07:26:23;;;;;;;17.50;10.15;;;6.50;77.00;;;;;;6338520;22;19999;-79
2022/12/14 07:28:49;;;;;;;16.48;9.00;;;6.50;76.70;;;;;;6338773;22;20304;-79
2022/12/14 07:31:20;;;;;;;14.25;9.50;;;6.50;76.80;;;;;;6338243;22;20056;-78
2022/12/14 07:33:47;;;;;;;19.60;10.20;;;6.60;77.00;;;;;;6338256;22;20195;-80
2022/12/14 07:36:15;;;;;;;17.17;9.80;;;6.60;77.40;;;;;;6338485;22;19999;-80
2022/12/14 07:38:42;;;;;;;17.30;10.82;;;6.60;77.00;;;;;;6310645;22;20002;-80
2022/12/14 07:41:11;;;;;;;17.35;10.20;;;6.60;77.70;;;;;;6338728;22;19995;-84
2022/12/14 07:43:38;;;;;;;20.15;11.15;;;6.60;77.80;;;;;;6340206;22;20003;-84
2022/12/14 07:46:10;;;;;;;15.45;10.23;;;6.60;77.70;;;;;;6340498;22;20020;-83
2022/12/14 07:48:36;;;;;;;16.95;10.68;;;6.60;78.10;;;;;;6340057;22;20060;-83
2022/12/14 07:51:08;;;;;;;17.92;10.25;;;6.60;78.40;;;;;;6340350;22;19998;-83
2022/12/14 07:53:34;;;;;;;14.48;9.65;;;6.80;78.70;;;;;;6340175;22;20003;-83
2022/12/14 07:56:09;;;;;;;19.02;9.77;;;6.80;78.50;;;;;;6340948;22;20083;-83
2022/12/14 07:58:39;;;;;;;19.27;10.75;;;6.80;78.30;;;;;;6339757;22;20007;-83
2022/12/14 08:01:07;;;;;;;14.98;10.15;;;6.80;78.80;;;;;;6340106;22;20083;-84
2022/12/14 08:03:33;;;;;;;22.10;11.57;;;6.80;78.50;;;;;;6340128;22;20003;-84
2022/12/14 08:06:02;;;;;;;14.70;9.93;;;6.80;79.00;;;;;;6340194;22;20371;-80
2022/12/14 08:08:27;;;;;;;15.32;10.50;;;6.70;79.60;;;;;;6339141;22;20006;-80
2022/12/14 08:10:53;;;;;;;20.13;10.77;;;6.70;79.40;;;;;;6339424;22;20010;-80
2022/12/14 08:13:19;;;;;;;18.38;10.82;;;6.70;79.10;;;;;;6339011;22;20007;-84
2022/12/14 08:15:44;;;;;;;17.45;11.27;;;6.80;79.30;;;;;;6339314;22;20007;-85
2022/12/14 08:18:10;;;;;;;22.27;12.82;;;6.80;79.80;;;;;;6339165;22;20340;-84
2022/12/14 08:20:35;;;;;;;17.80;11.13;;;6.70;80.00;;;;;;6340017;22;20462;-83
2022/12/14 08:23:01;;;;;;;15.98;10.15;;;6.80;79.70;;;;;;6340209;22;20048;-84
2022/12/14 08:25:27;;;;;;;19.20;11.10;;;6.60;79.60;;;;;;6339378;22;20026;-83
2022/12/14 08:27:52;;;;;;;19.30;10.85;;;6.60;80.20;;;;;;6339659;22;20006;-83
2022/12/14 08:30:18;;;;;;;17.45;11.07;;;6.70;80.00;;;;;;6339728;22;20363;-84
2022/12/14 08:32:44;;;;;;;14.32;10.43;;;6.60;79.90;;;;;;6339947;22;20329;-85
2022/12/14 08:35:09;;;;;;;16.88;10.82;;;6.80;80.20;;;;;;6339927;22;20076;-83
2022/12/14 08:37:35;;;;;;;18.55;11.25;;;6.70;80.30;;;;;;6339750;22;19995;-83
2022/12/14 08:40:02;;;;;;;19.27;12.50;;;6.80;80.60;;;;;;6312054;22;20009;-83
2022/12/14 08:42:28;;;;;;;17.70;10.90;;;6.80;80.90;;;;;;6339679;22;20026;-83
2022/12/14 08:44:53;;;;;;;17.35;11.13;;;6.80;80.40;;;;;;6340232;22;19999;-83
2022/12/14 08:47:19;;;;;;;18.20;11.82;;;6.70;80.70;;;;;;6339257;22;20062;-83
2022/12/14 08:49:45;;;;;;;19.83;11.80;;;6.80;80.70;;;;;;6339076;22;20017;-83
2022/12/14 08:52:10;;;;;;;17.58;12.95;;;6.80;80.40;;;;;;6340303;22;20052;-83
2022/12/14 08:54:36;;;;;;;27.30;12.07;;;6.80;81.00;;;;;;6339394;22;20003;-83
2022/12/14 08:57:02;;;;;;;18.33;11.88;;;6.90;80.90;;;;;;6340094;22;20282;-83
2022/12/14 08:59:28;;;;;;;17.70;10.95;;;6.90;80.70;;;;;;6339971;22;19995;-83
2022/12/14 09:01:54;;;;;;;15.07;10.68;;;6.90;80.70;;;;;;6339981;22;20006;-83
2022/12/14 09:04:20;;;;;;;16.70;11.20;;;6.90;80.60;;;;;;6340048;22;20007;-83
2022/12/14 09:06:45;;;;;;;19.20;13.38;;;6.90;80.40;;;;;;6340001;22;20006;-84
2022/12/14 09:09:11;;;;;;;16.58;11.18;;;6.90;80.20;;;;;;6339409;22;20039;-83
2022/12/14 09:11:37;;;;;;;19.20;11.93;;;6.90;80.30;;;;;;6340087;22;20446;-83
2022/12/14 09:14:02;;;;;;;17.73;12.27;;;6.90;80.50;;;;;;6339724;22;20039;-83
2022/12/14 09:16:28;;;;;;;19.33;11.35;;;6.90;80.50;;;;;;6340193;22;20002;-83
2022/12/14 09:18:54;;;;;;;18.08;11.98;;;6.90;80.60;;;;;;6339894;22;19999;-83
2022/12/14 09:21:20;;;;;;;18.80;12.35;;;7.00;80.70;;;;;;6339911;22;20002;-83
2022/12/14 09:23:46;;;;;;;20.25;12.95;;;7.00;80.50;;;;;;6339367;22;19999;-84
2022/12/14 09:26:15;;;;;;;17.13;11.50;;;7.00;79.80;;;;;;6339457;22;20003;-83
2022/12/14 09:28:44;;;;;;;15.10;10.00;;;6.90;79.30;;;;;;6339643;22;20437;-83
2022/12/14 09:31:12;;;;;;;16.92;9.77;;;6.90;79.20;;;;;;6339544;22;20320;-83
2022/12/14 09:33:38;;;;;;;21.95;11.18;;;6.90;78.90;;;;;;6339584;22;20010;-83
2022/12/14 09:36:20;;;;;;;16.23;9.90;;;7.00;78.50;;;;;;6339911;22;20328;-83
2022/12/14 09:38:48;;;;;;;13.45;9.60;;;7.00;79.00;;;;;;6338949;22;20150;-83
2022/12/14 09:41:34;;;;;;;17.35;9.98;;;7.10;78.50;;;;;;6311643;22;20003;-83
2022/12/14 09:44:36;;;;;;;17.58;11.05;;;7.20;78.40;;;;;;6322448;22;20098;-83
2022/12/14 09:47:16;;;;;;;17.17;10.82;;;7.20;77.20;;;;;;6339748;22;20124;-83
2022/12/14 09:50:02;;;;;;;16.98;11.70;;;7.30;76.20;;;;;;6339558;22;20003;-83
2022/12/14 09:52:33;;;;;;;20.73;11.63;;;7.30;76.80;;;;;;6339639;22;20417;-83
2022/12/14 09:55:01;;;;;;;16.42;11.05;;;7.30;76.80;;;;;;6339453;22;19999;-83
2022/12/14 09:57:36;;;;;;;22.38;13.07;;;7.30;76.80;;;;;;6339723;22;20002;-83
2022/12/14 10:00:09;;;;;;;16.05;10.38;;;7.30;75.80;;;;;;6339218;22;20023;-83
2022/12/14 10:02:51;;;;;;;14.88;9.65;;;7.20;75.70;;;;;;6339095;22;20420;-83
2022/12/14 10:05:52;;;;;;;17.02;11.10;;;7.20;74.20;;;;;;6338903;22;20436;-83
2022/12/14 10:08:30;;;;;;;14.02;8.90;;;7.20;72.70;;;;;;6338454;22;20497;-83
2022/12/14 10:11:15;;;;;;;12.70;8.82;;;7.10;73.80;;;;;;6337559;22;20015;-83
2022/12/14 10:14:07;;;;;;;12.82;8.50;;;7.20;74.70;;;;;;6338834;22;20005;-83
2022/12/14 10:16:57;;;;;;;13.63;8.60;;;7.30;74.60;;;;;;6338372;22;19999;-83
2022/12/14 10:19:36;;;;;;;12.20;8.50;;;7.40;74.80;;;;;;6339517;22;19995;-83
2022/12/14 10:22:16;;;;;;;14.98;10.23;;;7.50;74.70;;;;;;6339290;22;20005;-83
2022/12/14 10:24:49;;;;;;;13.27;8.10;;;7.60;73.10;;;;;;6339413;22;20073;-83
2022/12/14 10:27:21;;;;;;;12.07;9.23;;;7.60;73.60;;;;;;6339312;22;19999;-83
2022/12/14 10:29:59;;;;;;;15.98;8.50;;;7.60;73.10;;;;;;6339070;22;20006;-83
2022/12/14 10:32:39;;;;;;;13.15;8.20;;;7.60;72.50;;;;;;6338291;22;20086;-83
2022/12/14 10:35:16;;;;;;;11.13;8.05;;;7.60;71.00;;;;;;6339140;22;19999;-83
2022/12/14 10:38:11;;;;;;;13.00;8.15;;;7.50;71.10;;;;;;6338709;22;20037;-83
2022/12/14 10:40:47;;;;;;;9.85;7.20;;;7.60;71.10;;;;;;6321264;22;20031;-85
2022/12/14 10:43:30;;;;;;;10.55;7.35;;;7.60;69.60;;;;;;6338833;22;20022;-82
2022/12/14 10:46:11;;;;;;;10.40;6.95;;;7.60;69.40;;;;;;6337435;22;20074;-85
2022/12/14 10:48:46;;;;;;;16.92;8.38;;;7.70;69.30;;;;;;6339140;22;19999;-85
2022/12/14 10:51:49;;;;;;;11.40;6.68;;;7.80;69.60;;;;;;6338776;22;20002;-85
2022/12/14 10:54:34;;;;;;;15.40;7.72;;;8.00;70.70;;;;;;6296842;22;20010;-84
2022/12/14 10:57:00;;;;;;;10.07;7.22;;;8.20;70.40;;;;;;6332642;22;20056;-85
2022/12/14 10:59:34;;;;;;;13.38;8.13;;;8.40;70.50;;;;;;6335887;22;20066;-80
2022/12/14 11:02:08;;;;;;;12.52;7.40;;;8.50;69.40;;;;;;6338225;22;19998;-90
2022/12/14 11:04:38;;;;;;;15.27;8.43;;;8.60;69.10;;;;;;6338160;22;20003;-90
2022/12/14 11:07:06;;;;;;;12.73;7.93;;;8.60;66.50;;;;;;6338454;22;20367;-90
2022/12/14 11:09:33;;;;;;;9.20;6.95;;;8.70;68.40;;;;;;6337344;22;20010;-85
2022/12/14 11:12:06;;;;;;;17.33;9.80;;;8.80;69.10;;;;;;6337575;22;20002;-85
2022/12/14 11:14:34;;;;;;;15.40;8.63;;;8.80;67.00;;;;;;6337826;22;19999;-85
2022/12/14 11:17:00;;;;;;;11.07;7.95;;;8.70;67.50;;;;;;6339787;22;20071;-85
2022/12/14 11:19:26;;;;;;;11.23;7.32;;;8.70;67.60;;;;;;6341734;22;20417;-85
2022/12/14 11:22:12;;;;;;;11.55;7.72;;;8.60;68.10;;;;;;6341309;22;19999;-85
2022/12/14 11:24:47;;;;;;;13.98;8.18;;;8.60;68.40;;;;;;6340520;22;20415;-85
2022/12/14 11:27:18;;;;;;;11.30;8.30;;;8.50;68.70;;;;;;6341580;22;20003;-85
2022/12/14 11:29:46;;;;;;;11.52;8.00;;;8.60;69.30;;;;;;6340844;22;20026;-85
2022/12/14 11:32:24;;;;;;;11.48;7.70;;;8.60;69.00;;;;;;6341333;22;19999;-85
2022/12/14 11:34:57;;;;;;;13.07;7.80;;;8.60;69.20;;;;;;6341118;22;19999;-85
2022/12/14 11:37:25;;;;;;;12.18;7.57;;;8.60;69.30;;;;;;6341475;22;20424;-85
2022/12/14 11:40:03;;;;;;;13.77;7.75;;;8.50;68.30;;;;;;6341407;22;19999;-85
2022/12/14 11:42:29;;;;;;;13.88;8.23;;;8.50;69.30;;;;;;6340189;22;20002;-85
2022/12/14 11:45:24;;;;;;;10.82;7.22;;;8.50;69.00;;;;;;6341293;22;20048;-85
2022/12/14 11:48:14;;;;;;;10.90;6.80;;;8.50;68.90;;;;;;6341386;22;20055;-85
2022/12/14 11:50:41;;;;;;;11.38;7.05;;;8.50;69.30;;;;;;6340597;22;20007;-85
2022/12/14 11:53:13;;;;;;;9.50;7.03;;;8.50;69.20;;;;;;6340818;22;20009;-85
2022/12/14 11:55:57;;;;;;;11.00;7.70;;;8.50;69.60;;;;;;6340840;22;20041;-85
2022/12/14 11:58:32;;;;;;;12.13;7.32;;;8.60;69.80;;;;;;6340848;22;20078;-85
2022/12/14 12:01:10;;;;;;;11.40;7.57;;;8.60;69.80;;;;;;6340972;22;20405;-85
2022/12/14 12:03:40;;;;;;;9.02;6.75;;;8.70;68.90;;;;;;6341204;22;20474;-85
2022/12/14 12:06:10;;;;;;;9.27;6.70;;;8.70;69.00;;;;;;6340085;22;20002;-85
2022/12/14 12:08:39;;;;;;;9.40;6.53;;;8.80;69.50;;;;;;6339077;22;20497;-85
2022/12/14 12:11:15;;;;;;;8.52;6.32;;;8.80;69.30;;;;;;6340107;22;20010;-85
2022/12/14 12:13:44;;;;;;;12.32;8.00;;;9.10;69.00;;;;;;6340852;22;20081;-85
2022/12/14 12:16:10;;;;;;;13.25;7.53;;;9.00;69.30;;;;;;6341097;22;20373;-85
2022/12/14 12:18:45;;;;;;;10.07;6.53;;;9.20;68.10;;;;;;6341505;22;20006;-85
2022/12/14 12:21:20;;;;;;;9.75;6.53;;;9.20;68.60;;;;;;6341423;22;20413;-85
2022/12/14 12:24:19;;;;;;;9.00;6.50;;;9.20;68.40;;;;;;6340373;22;20029;-85
2022/12/14 12:27:10;;;;;;;9.75;6.63;;;9.20;68.00;;;;;;6339563;22;20003;-85
2022/12/14 12:29:42;;;;;;;11.88;7.15;;;9.10;68.00;;;;;;6339077;22;20313;-85
2022/12/14 12:32:27;;;;;;;10.30;6.63;;;9.10;67.50;;;;;;6338831;22;20030;-84
2022/12/14 12:35:01;;;;;;;8.23;6.07;;;9.10;67.30;;;;;;6338170;22;20003;-84
2022/12/14 12:37:53;;;;;;;10.25;6.03;;;9.20;68.10;;;;;;6331258;22;20006;-85
2022/12/14 12:40:47;;;;;;;6.75;5.03;;;9.20;67.30;;;;;;6333118;22;20069;-84
2022/12/14 12:43:45;;;;;;;9.07;5.72;;;9.20;67.70;;;;;;6337463;22;19995;-85
2022/12/14 12:46:21;;;;;;;8.70;6.30;;;9.20;67.80;;;;;;6338934;22;20011;-85
2022/12/14 12:49:00;;;;;;;8.70;6.38;;;9.20;67.60;;;;;;6339052;22;19999;-85
2022/12/14 12:51:57;;;;;;;10.13;6.82;;;9.80;68.30;;;;;;6338315;22;20003;-86
2022/12/14 12:54:42;;;;;;;8.52;6.03;;;9.20;68.20;;;;;;6338876;22;20014;-86
2022/12/14 12:57:11;;;;;;;8.75;6.32;;;9.30;68.10;;;;;;6338840;22;19995;-83
2022/12/14 12:59:44;;;;;;;9.43;6.60;;;9.30;67.90;;;;;;6335387;22;20428;-84
2022/12/14 13:02:20;;;;;;;10.93;7.88;;;9.40;68.50;;;;;;6335507;22;20011;-85
2022/12/14 13:04:49;;;;;;;10.95;7.35;;;9.40;68.60;;;;;;6335827;22;20003;-83
2022/12/14 13:07:24;;;;;;;13.73;8.05;;;9.40;69.30;;;;;;6335404;22;20007;-84
2022/12/14 13:10:02;;;;;;;9.98;7.40;;;9.50;69.40;;;;;;6334684;22;20191;-84
2022/12/14 13:12:42;;;;;;;12.88;7.30;;;9.40;68.90;;;;;;6334958;22;20297;-81
2022/12/14 13:15:28;;;;;;;11.98;7.28;;;9.40;69.00;;;;;;6335181;22;20003;-81
2022/12/14 13:18:02;;;;;;;10.50;6.80;;;9.40;69.30;;;;;;6335865;22;20329;-81
2022/12/14 13:20:32;;;;;;;15.20;6.55;;;9.50;69.40;;;;;;6336636;22;19998;-81
2022/12/14 13:23:00;;;;;;;8.93;6.93;;;9.50;69.50;;;;;;6335949;22;19995;-81
2022/12/14 13:26:04;;;;;;;10.35;7.38;;;9.50;69.50;;;;;;6335853;22;20014;-81
2022/12/14 13:28:42;;;;;;;11.50;7.53;;;9.50;69.40;;;;;;6333865;22;20082;-81